createdAt,value
2023-07-25T00:00:36.862Z,2.95
2023-07-25T00:01:38.982Z,2.78
2023-07-25T00:02:44.726Z,2.47
2023-07-25T00:03:53.562Z,2.65
2023-07-25T00:04:55.660Z,2.85
2023-07-25T00:05:58.562Z,3.10
2023-07-25T00:07:15.940Z,2.80
2023-07-25T00:08:23.250Z,2.88
2023-07-25T00:09:25.239Z,3.00
2023-07-25T00:10:27.457Z,2.50
2023-07-25T00:11:34.371Z,2.95
2023-07-25T00:12:37.012Z,2.63
2023-07-25T00:13:39.104Z,3.10
2023-07-25T00:14:41.087Z,2.80
2023-07-25T00:15:53.170Z,3.78
2023-07-25T00:17:03.955Z,5.57
2023-07-25T00:18:13.088Z,7.38
2023-07-25T00:19:21.155Z,5.53
2023-07-25T00:20:29.081Z,7.13
2023-07-25T00:21:37.973Z,4.18
2023-07-25T00:22:40.369Z,3.35
2023-07-25T00:23:46.894Z,2.90
2023-07-25T00:24:55.439Z,2.60
2023-07-25T00:26:00.980Z,2.92
2023-07-25T00:27:03.112Z,2.80
2023-07-25T00:28:05.164Z,2.90
2023-07-25T00:29:13.476Z,2.78
2023-07-25T00:30:22.381Z,2.60
2023-07-25T00:31:29.221Z,2.75
2023-07-25T00:32:39.331Z,2.55
2023-07-25T00:33:48.289Z,2.35
2023-07-25T00:34:56.077Z,2.40
2023-07-25T00:35:57.959Z,2.83
2023-07-25T00:37:00.093Z,2.90
2023-07-25T00:38:05.162Z,2.50
2023-07-25T00:39:13.036Z,2.53
2023-07-25T00:40:19.948Z,2.70
2023-07-25T00:41:25.615Z,2.45
2023-07-25T00:42:28.087Z,2.85
2023-07-25T00:43:30.668Z,2.45
2023-07-25T00:44:32.840Z,2.70
2023-07-25T00:45:40.875Z,2.80
2023-07-25T00:46:46.979Z,2.67
2023-07-25T00:47:49.365Z,2.70
2023-07-25T00:48:52.179Z,2.60
2023-07-25T00:49:59.103Z,2.88
2023-07-25T00:51:01.079Z,2.65
2023-07-25T00:52:03.893Z,3.05
2023-07-25T00:53:07.919Z,2.42
2023-07-25T00:54:10.264Z,2.65
2023-07-25T00:55:14.025Z,2.97
2023-07-25T00:56:16.256Z,3.05
2023-07-25T00:57:19.931Z,2.60
2023-07-25T00:58:22.739Z,2.70
2023-07-25T00:59:24.729Z,2.63
2023-07-25T01:00:26.772Z,2.97
2023-07-25T01:01:30.419Z,2.75
2023-07-25T01:02:37.531Z,2.70
2023-07-25T01:03:44.244Z,2.60
2023-07-25T01:04:46.538Z,2.70
2023-07-25T01:05:54.929Z,3.03
2023-07-25T01:06:57.998Z,2.42
2023-07-25T01:08:00.156Z,2.67
2023-07-25T01:09:02.756Z,3.13
2023-07-25T01:10:05.155Z,2.67
2023-07-25T01:11:07.254Z,2.70
2023-07-25T01:12:11.196Z,2.70
2023-07-25T01:13:14.352Z,2.50
2023-07-25T01:14:16.495Z,3.25
2023-07-25T01:15:18.487Z,3.15
2023-07-25T01:16:25.046Z,3.10
2023-07-25T01:17:29.167Z,2.55
2023-07-25T01:18:31.367Z,3.35
2023-07-25T01:19:35.723Z,2.90
2023-07-25T01:20:41.661Z,2.67
2023-07-25T01:21:43.609Z,2.40
2023-07-25T01:22:47.994Z,3.15
2023-07-25T01:23:51.892Z,2.80
2023-07-25T01:24:56.562Z,2.88
2023-07-25T01:25:58.493Z,2.83
2023-07-25T01:27:06.186Z,2.78
2023-07-25T01:28:13.611Z,2.72
2023-07-25T01:29:19.926Z,2.58
2023-07-25T01:30:25.249Z,2.55
2023-07-25T01:31:27.636Z,2.88
2023-07-25T01:32:32.258Z,2.88
2023-07-25T01:33:36.443Z,2.90
2023-07-25T01:34:38.991Z,2.90
2023-07-25T01:35:40.877Z,2.85
2023-07-25T01:36:43.310Z,3.00
2023-07-25T01:37:52.871Z,2.55
2023-07-25T01:39:01.522Z,3.20
2023-07-25T01:40:09.292Z,2.90
2023-07-25T01:41:18.162Z,2.95
2023-07-25T01:42:20.047Z,2.70
2023-07-25T01:43:22.039Z,2.80
2023-07-25T01:44:24.180Z,2.83
2023-07-25T01:45:29.802Z,2.88
2023-07-25T01:46:34.589Z,2.63
2023-07-25T01:47:37.311Z,3.00
2023-07-25T01:48:39.408Z,2.55
2023-07-25T01:49:41.287Z,2.58
2023-07-25T01:50:43.180Z,3.00
2023-07-25T01:51:45.169Z,3.30
2023-07-25T01:52:47.056Z,2.80
2023-07-25T01:54:02.212Z,2.78
2023-07-25T01:55:04.355Z,2.53
2023-07-25T01:56:06.509Z,3.00
2023-07-25T01:57:08.634Z,2.97
2023-07-25T01:58:10.596Z,2.83
2023-07-25T01:59:13.669Z,2.85
2023-07-25T02:00:15.794Z,2.67
2023-07-25T02:01:20.298Z,2.80
2023-07-25T02:02:24.219Z,3.40
2023-07-25T02:03:29.400Z,2.83
2023-07-25T02:04:32.746Z,2.95
2023-07-25T02:05:35.345Z,2.95
2023-07-25T02:06:37.447Z,3.20
2023-07-25T02:07:39.555Z,2.95
2023-07-25T02:08:41.494Z,3.08
2023-07-25T02:09:44.346Z,3.13
2023-07-25T02:10:47.343Z,3.50
2023-07-25T02:11:49.414Z,2.80
2023-07-25T02:12:53.306Z,2.92
2023-07-25T02:13:58.963Z,2.63
2023-07-25T02:15:04.817Z,2.63
2023-07-25T02:16:08.710Z,2.67
2023-07-25T02:17:10.909Z,2.55
2023-07-25T02:18:12.905Z,2.70
2023-07-25T02:19:15.482Z,3.15
2023-07-25T02:20:18.818Z,2.80
2023-07-25T02:21:26.878Z,3.08
2023-07-25T02:22:33.887Z,2.80
2023-07-25T02:23:35.941Z,2.80
2023-07-25T02:24:41.285Z,2.97
2023-07-25T02:25:48.529Z,2.90
2023-07-25T02:26:50.536Z,2.83
2023-07-25T02:27:52.583Z,3.00
2023-07-25T02:28:59.462Z,2.63
2023-07-25T02:30:04.454Z,3.00
2023-07-25T02:31:09.916Z,2.60
2023-07-25T02:32:12.488Z,2.92
2023-07-25T02:33:15.116Z,3.15
2023-07-25T02:34:18.071Z,2.70
2023-07-25T02:35:19.953Z,3.03
2023-07-25T02:36:21.848Z,3.50
2023-07-25T02:37:25.154Z,2.97
2023-07-25T02:38:31.833Z,3.00
2023-07-25T02:39:39.285Z,3.05
2023-07-25T02:40:42.468Z,3.03
2023-07-25T02:41:45.258Z,3.45
2023-07-25T02:42:47.605Z,2.90
2023-07-25T02:43:50.178Z,2.85
2023-07-25T02:44:56.339Z,3.20
2023-07-25T02:45:58.197Z,3.00
2023-07-25T02:47:00.425Z,3.03
2023-07-25T02:48:02.813Z,2.75
2023-07-25T02:49:04.794Z,2.83
2023-07-25T02:50:12.872Z,2.78
2023-07-25T02:51:14.902Z,3.05
2023-07-25T02:52:16.785Z,2.65
2023-07-25T02:53:18.917Z,2.90
2023-07-25T02:54:20.793Z,3.35
2023-07-25T02:55:22.713Z,2.90
2023-07-25T02:56:27.186Z,2.97
2023-07-25T02:57:37.889Z,3.00
2023-07-25T02:58:40.025Z,3.17
2023-07-25T02:59:41.972Z,3.20
2023-07-25T03:00:44.136Z,3.33
2023-07-25T03:01:46.134Z,2.70
2023-07-25T03:02:48.154Z,3.00
2023-07-25T03:03:56.681Z,2.88
2023-07-25T03:05:02.398Z,3.13
2023-07-25T03:06:09.688Z,3.00
2023-07-25T03:07:16.064Z,3.45
2023-07-25T03:08:22.727Z,3.25
2023-07-25T03:09:25.373Z,3.20
2023-07-25T03:10:27.548Z,3.33
2023-07-25T03:11:30.172Z,3.03
2023-07-25T03:12:39.389Z,3.20
2023-07-25T03:13:44.598Z,3.20
2023-07-25T03:14:47.905Z,3.30
2023-07-25T03:15:49.890Z,3.13
2023-07-25T03:16:51.973Z,3.05
2023-07-25T03:17:55.615Z,3.45
2023-07-25T03:19:00.810Z,3.30
2023-07-25T03:20:06.105Z,3.47
2023-07-25T03:21:10.947Z,3.53
2023-07-25T03:22:16.061Z,3.17
2023-07-25T03:23:17.942Z,3.17
2023-07-25T03:24:20.062Z,2.97
2023-07-25T03:25:22.290Z,3.40
2023-07-25T03:26:33.723Z,3.28
2023-07-25T03:27:45.898Z,3.40
2023-07-25T03:28:57.086Z,3.05
2023-07-25T03:30:08.744Z,3.42
2023-07-25T03:31:20.027Z,3.08
2023-07-25T03:32:33.542Z,3.00
2023-07-25T03:33:47.523Z,3.22
2023-07-25T03:34:59.755Z,3.33
2023-07-25T03:36:11.024Z,3.17
2023-07-25T03:37:17.298Z,2.88
2023-07-25T03:38:30.652Z,3.28
2023-07-25T03:39:45.350Z,3.55
2023-07-25T03:41:00.829Z,4.03
2023-07-25T03:42:12.758Z,3.50
2023-07-25T03:43:31.297Z,3.30
2023-07-25T03:44:45.582Z,3.20
2023-07-25T03:45:59.466Z,3.42
2023-07-25T03:47:14.437Z,3.33
2023-07-25T03:48:28.208Z,3.20
2023-07-25T03:49:35.753Z,3.60
2023-07-25T03:50:42.626Z,3.20
2023-07-25T03:51:55.537Z,3.30
2023-07-25T03:53:00.059Z,3.15
2023-07-25T03:54:02.007Z,3.47
2023-07-25T03:55:04.438Z,3.10
2023-07-25T03:56:06.589Z,3.20
2023-07-25T03:57:08.491Z,3.35
2023-07-25T03:58:13.672Z,2.90
2023-07-25T03:59:18.322Z,3.60
2023-07-25T04:00:23.412Z,3.22
2023-07-25T04:01:28.597Z,3.40
2023-07-25T04:02:35.071Z,3.47
2023-07-25T04:03:39.627Z,2.85
2023-07-25T04:04:43.075Z,2.78
2023-07-25T04:05:48.188Z,3.08
2023-07-25T04:06:50.346Z,3.10
2023-07-25T04:07:52.760Z,2.97
2023-07-25T04:08:54.769Z,2.95
2023-07-25T04:09:56.859Z,2.95
2023-07-25T04:10:59.634Z,3.08
2023-07-25T04:12:01.823Z,3.83
2023-07-25T04:13:06.604Z,3.33
2023-07-25T04:14:08.935Z,2.90
2023-07-25T04:15:12.208Z,3.08
2023-07-25T04:16:14.302Z,3.00
2023-07-25T04:17:16.268Z,3.15
2023-07-25T04:18:18.282Z,3.20
2023-07-25T04:19:32.901Z,3.47
2023-07-25T04:20:36.641Z,4.22
2023-07-25T04:21:41.449Z,3.80
2023-07-25T04:22:56.811Z,2.72
2023-07-25T04:24:00.947Z,3.15
2023-07-25T04:25:04.947Z,3.17
2023-07-25T04:26:09.240Z,2.70
2023-07-25T04:27:18.186Z,3.90
2023-07-25T04:28:20.846Z,3.80
2023-07-25T04:29:22.884Z,3.15
2023-07-25T04:30:24.960Z,3.47
2023-07-25T04:31:30.353Z,3.33
2023-07-25T04:32:33.197Z,3.10
2023-07-25T04:33:35.666Z,3.35
2023-07-25T04:34:38.190Z,3.50
2023-07-25T04:35:44.005Z,3.40
2023-07-25T04:36:47.570Z,3.10
2023-07-25T04:37:51.574Z,2.75
2023-07-25T04:38:54.297Z,3.35
2023-07-25T04:39:57.129Z,3.28
2023-07-25T04:41:00.424Z,2.80
2023-07-25T04:42:02.615Z,3.85
2023-07-25T04:43:06.087Z,3.55
2023-07-25T04:44:10.272Z,3.33
2023-07-25T04:45:15.160Z,3.20
2023-07-25T04:46:19.151Z,3.15
2023-07-25T04:47:22.216Z,3.03
2023-07-25T04:48:24.684Z,3.08
2023-07-25T04:49:26.859Z,3.47
2023-07-25T04:50:29.892Z,3.83
2023-07-25T04:51:32.320Z,3.38
2023-07-25T04:52:35.756Z,3.30
2023-07-25T04:53:37.893Z,3.00
2023-07-25T04:54:43.808Z,3.50
2023-07-25T04:55:57.560Z,3.40
2023-07-25T04:57:11.104Z,3.28
2023-07-25T04:58:22.283Z,3.80
2023-07-25T04:59:32.637Z,3.33
2023-07-25T05:00:46.450Z,3.38
2023-07-25T05:01:57.672Z,3.13
2023-07-25T05:03:05.783Z,3.22
2023-07-25T05:04:08.393Z,3.35
2023-07-25T05:05:10.572Z,3.13
2023-07-25T05:06:13.120Z,3.20
2023-07-25T05:07:18.081Z,3.25
2023-07-25T05:08:28.668Z,3.65
2023-07-25T05:09:36.852Z,3.67
2023-07-25T05:10:44.776Z,3.25
2023-07-25T05:11:55.712Z,3.22
2023-07-25T05:13:06.271Z,2.97
2023-07-25T05:14:20.012Z,3.20
2023-07-25T05:15:34.167Z,3.40
2023-07-25T05:16:44.065Z,3.30
2023-07-25T05:17:54.582Z,3.50
2023-07-25T05:19:04.257Z,3.60
2023-07-25T05:20:16.616Z,2.85
2023-07-25T05:21:29.083Z,3.47
2023-07-25T05:22:38.857Z,3.35
2023-07-25T05:23:49.538Z,3.17
2023-07-25T05:24:58.924Z,3.42
2023-07-25T05:26:07.827Z,2.90
2023-07-25T05:27:17.665Z,2.85
2023-07-25T05:28:26.816Z,3.22
2023-07-25T05:29:33.129Z,3.10
2023-07-25T05:30:38.218Z,3.50
2023-07-25T05:31:40.546Z,3.20
2023-07-25T05:32:48.086Z,3.33
2023-07-25T05:33:54.371Z,3.22
2023-07-25T05:35:01.637Z,3.42
2023-07-25T05:36:07.827Z,4.03
2023-07-25T05:37:16.993Z,4.13
2023-07-25T05:38:26.223Z,3.35
2023-07-25T05:39:35.557Z,3.55
2023-07-25T05:40:46.179Z,3.65
2023-07-25T05:41:51.994Z,3.35
2023-07-25T05:42:58.552Z,3.58
2023-07-25T05:44:07.603Z,3.42
2023-07-25T05:45:16.877Z,3.42
2023-07-25T05:46:26.803Z,3.90
2023-07-25T05:47:41.366Z,3.58
2023-07-25T05:48:48.921Z,3.67
2023-07-25T05:49:57.058Z,3.13
2023-07-25T05:51:02.278Z,3.60
2023-07-25T05:52:07.774Z,3.65
2023-07-25T05:53:16.229Z,3.38
2023-07-25T05:54:19.313Z,3.60
2023-07-25T05:55:26.608Z,3.38
2023-07-25T05:56:31.759Z,3.67
2023-07-25T05:57:38.193Z,3.25
2023-07-25T05:58:45.117Z,4.40
2023-07-25T05:59:51.643Z,3.70
2023-07-25T06:00:54.358Z,3.95
2023-07-25T06:01:56.853Z,3.80
2023-07-25T06:03:07.883Z,3.63
2023-07-25T06:04:10.225Z,3.50
2023-07-25T06:05:12.389Z,3.40
2023-07-25T06:06:14.910Z,3.20
2023-07-25T06:07:17.326Z,3.38
2023-07-25T06:08:19.309Z,3.70
2023-07-25T06:09:21.565Z,4.00
2023-07-25T06:10:28.193Z,3.55
2023-07-25T06:11:31.063Z,3.60
2023-07-25T06:12:33.860Z,3.80
2023-07-25T06:13:47.415Z,4.03
2023-07-25T06:14:53.071Z,4.22
2023-07-25T06:15:57.644Z,3.97
2023-07-25T06:17:10.341Z,4.70
2023-07-25T06:18:22.041Z,3.85
2023-07-25T06:19:24.318Z,3.88
2023-07-25T06:20:35.712Z,3.60
2023-07-25T06:21:40.535Z,4.00
2023-07-25T06:22:44.137Z,4.03
2023-07-25T06:23:51.607Z,3.92
2023-07-25T06:24:57.072Z,4.00
2023-07-25T06:26:03.424Z,4.45
2023-07-25T06:27:07.213Z,4.30
2023-07-25T06:28:09.959Z,4.82
2023-07-25T06:29:17.635Z,4.85
2023-07-25T06:30:23.058Z,4.30
2023-07-25T06:31:28.606Z,4.10
2023-07-25T06:32:31.661Z,5.07
2023-07-25T06:33:34.527Z,5.20
2023-07-25T06:34:36.445Z,5.13
2023-07-25T06:35:38.879Z,4.25
2023-07-25T06:36:46.260Z,4.10
2023-07-25T06:37:51.896Z,4.18
2023-07-25T06:39:00.053Z,4.57
2023-07-25T06:40:05.976Z,4.50
2023-07-25T06:41:10.729Z,4.28
2023-07-25T06:42:15.429Z,3.95
2023-07-25T06:43:19.672Z,4.32
2023-07-25T06:44:21.932Z,3.80
2023-07-25T06:45:23.994Z,4.10
2023-07-25T06:46:26.294Z,4.28
2023-07-25T06:47:28.554Z,4.18
2023-07-25T06:48:30.633Z,4.07
2023-07-25T06:49:32.620Z,4.25
2023-07-25T06:50:38.778Z,3.85
2023-07-25T06:51:42.324Z,4.47
2023-07-25T06:52:45.117Z,4.10
2023-07-25T06:53:51.310Z,4.40
2023-07-25T06:54:56.246Z,4.35
2023-07-25T06:55:58.462Z,4.40
2023-07-25T06:57:04.819Z,4.32
2023-07-25T06:58:07.448Z,4.35
2023-07-25T06:59:09.342Z,4.50
2023-07-25T07:00:12.191Z,4.25
2023-07-25T07:01:23.346Z,4.10
2023-07-25T07:02:29.546Z,4.38
2023-07-25T07:03:32.431Z,3.92
2023-07-25T07:04:35.740Z,4.25
2023-07-25T07:05:42.146Z,4.18
2023-07-25T07:06:46.757Z,4.35
2023-07-25T07:07:52.134Z,3.67
2023-07-25T07:08:55.033Z,4.22
2023-07-25T07:09:57.323Z,4.45
2023-07-25T07:10:59.220Z,4.47
2023-07-25T07:12:01.976Z,4.88
2023-07-25T07:13:04.056Z,4.93
2023-07-25T07:14:18.231Z,4.95
2023-07-25T07:15:26.900Z,4.15
2023-07-25T07:16:29.729Z,4.18
2023-07-25T07:17:31.874Z,4.43
2023-07-25T07:18:36.141Z,4.53
2023-07-25T07:19:40.549Z,4.55
2023-07-25T07:20:50.396Z,4.38
2023-07-25T07:21:54.218Z,4.57
2023-07-25T07:22:58.169Z,4.20
2023-07-25T07:24:02.453Z,4.15
2023-07-25T07:25:06.743Z,4.20
2023-07-25T07:26:10.779Z,4.15
2023-07-25T07:27:14.938Z,4.72
2023-07-25T07:28:19.293Z,4.43
2023-07-25T07:29:23.850Z,4.43
2023-07-25T07:30:28.207Z,4.57
2023-07-25T07:31:32.924Z,5.00
2023-07-25T07:32:36.972Z,5.28
2023-07-25T07:33:42.053Z,4.80
2023-07-25T07:34:46.124Z,4.60
2023-07-25T07:35:50.129Z,5.18
2023-07-25T07:36:54.389Z,5.00
2023-07-25T07:37:58.557Z,5.28
2023-07-25T07:39:02.993Z,5.28
2023-07-25T07:40:08.294Z,4.30
2023-07-25T07:41:12.429Z,4.20
2023-07-25T07:42:17.710Z,4.65
2023-07-25T07:43:22.282Z,5.18
2023-07-25T07:44:26.324Z,4.57
2023-07-25T07:45:32.071Z,5.07
2023-07-25T07:46:37.515Z,5.00
2023-07-25T07:47:42.080Z,4.85
2023-07-25T07:48:46.220Z,4.50
2023-07-25T07:49:50.207Z,4.57
2023-07-25T07:50:54.071Z,4.72
2023-07-25T07:53:09.499Z,4.93
2023-07-25T07:54:14.173Z,4.82
2023-07-25T07:55:19.332Z,4.45
2023-07-25T07:56:23.905Z,4.25
2023-07-25T07:57:28.993Z,4.30
2023-07-25T07:58:33.517Z,4.40
2023-07-25T07:59:38.154Z,4.72
2023-07-25T08:00:42.389Z,5.32
2023-07-25T08:01:46.742Z,5.18
2023-07-25T08:02:51.180Z,5.13
2023-07-25T08:03:55.792Z,4.63
2023-07-25T08:05:00.035Z,5.57
2023-07-25T08:06:03.899Z,5.45
2023-07-25T08:07:07.804Z,5.15
2023-07-25T08:08:12.421Z,5.43
2023-07-25T08:09:17.236Z,5.55
2023-07-25T08:10:22.254Z,5.72
2023-07-25T08:11:26.362Z,5.00
2023-07-25T08:12:30.313Z,5.63
2023-07-25T08:13:34.757Z,5.30
2023-07-25T08:14:38.920Z,5.25
2023-07-25T08:15:43.346Z,4.97
2023-07-25T08:16:47.471Z,4.20
2023-07-25T08:17:52.149Z,4.10
2023-07-25T08:18:56.019Z,4.13
2023-07-25T08:20:01.048Z,3.90
2023-07-25T08:21:05.312Z,3.58
2023-07-25T08:22:09.458Z,4.25
2023-07-25T08:23:13.847Z,3.28
2023-07-25T08:24:18.828Z,3.83
2023-07-25T08:25:22.808Z,3.00
2023-07-25T08:26:27.381Z,3.42
2023-07-25T08:27:31.616Z,3.17
2023-07-25T08:28:36.625Z,3.50
2023-07-25T08:29:46.527Z,3.35
2023-07-25T08:30:51.216Z,3.00
2023-07-25T08:31:55.935Z,3.05
2023-07-25T08:33:01.106Z,2.70
2023-07-25T08:34:05.314Z,3.13
2023-07-25T08:35:09.864Z,2.85
2023-07-25T08:36:14.223Z,2.75
2023-07-25T08:37:17.755Z,3.08
2023-07-25T08:38:22.040Z,2.92
2023-07-25T08:39:26.633Z,3.17
2023-07-25T08:40:31.350Z,3.08
2023-07-25T08:41:42.738Z,2.92
2023-07-25T08:42:52.564Z,3.10
2023-07-25T08:44:01.491Z,3.00
2023-07-25T08:45:09.097Z,2.75
2023-07-25T08:46:17.056Z,3.05
2023-07-25T08:47:28.928Z,2.60
2023-07-25T08:48:36.182Z,2.78
2023-07-25T08:49:43.510Z,2.33
2023-07-25T08:50:53.544Z,2.28
2023-07-25T08:52:00.116Z,2.45
2023-07-25T08:53:12.364Z,1.92
2023-07-25T08:54:24.762Z,2.30
2023-07-25T08:55:30.469Z,2.50
2023-07-25T08:56:38.462Z,2.17
2023-07-25T08:57:44.890Z,2.00
2023-07-25T08:58:51.618Z,2.00
2023-07-25T08:59:56.880Z,2.58
2023-07-25T09:01:02.088Z,2.45
2023-07-25T09:02:06.983Z,2.15
2023-07-25T09:03:11.092Z,1.73
2023-07-25T09:04:16.753Z,2.00
2023-07-25T09:05:21.206Z,2.28
2023-07-25T09:06:25.869Z,2.00
2023-07-25T09:07:30.215Z,1.70
2023-07-25T09:08:34.450Z,1.98
2023-07-25T09:09:39.004Z,2.22
2023-07-25T09:10:45.800Z,2.00
2023-07-25T09:11:50.130Z,2.08
2023-07-25T09:12:54.839Z,2.00
2023-07-25T09:13:59.003Z,1.83
2023-07-25T09:15:03.813Z,2.22
2023-07-25T09:16:08.077Z,2.67
2023-07-25T09:17:12.900Z,2.42
2023-07-25T09:18:17.102Z,2.22
2023-07-25T09:19:22.274Z,2.20
2023-07-25T09:20:26.789Z,2.35
2023-07-25T09:21:31.603Z,2.17
2023-07-25T09:22:36.741Z,2.00
2023-07-25T09:23:42.367Z,1.60
2023-07-25T09:24:46.589Z,1.55
2023-07-25T09:25:52.112Z,1.55
2023-07-25T09:26:56.474Z,1.40
2023-07-25T09:28:01.029Z,1.48
2023-07-25T09:29:05.118Z,1.50
2023-07-25T09:30:15.267Z,1.80
2023-07-25T09:31:21.019Z,1.65
2023-07-25T09:32:29.013Z,1.40
2023-07-25T09:33:33.939Z,1.40
2023-07-25T09:34:38.743Z,1.38
2023-07-25T09:35:48.416Z,1.50
2023-07-25T09:36:53.010Z,1.52
2023-07-25T09:38:01.120Z,1.48
2023-07-25T09:39:05.062Z,1.40
2023-07-25T09:40:13.674Z,1.50
2023-07-25T09:41:18.036Z,1.33
2023-07-25T09:42:26.283Z,1.52
2023-07-25T09:43:32.222Z,1.40
2023-07-25T09:44:36.457Z,1.70
2023-07-25T09:45:40.834Z,1.58
2023-07-25T09:46:55.303Z,1.33
2023-07-25T09:48:01.229Z,1.52
2023-07-25T09:49:05.558Z,1.75
2023-07-25T09:50:10.155Z,1.42
2023-07-25T09:51:18.029Z,1.50
2023-07-25T09:52:22.524Z,1.40
2023-07-25T09:53:26.945Z,1.40
2023-07-25T09:54:31.343Z,1.50
2023-07-25T09:55:35.332Z,1.85
2023-07-25T09:56:39.677Z,1.80
2023-07-25T09:57:44.551Z,1.65
2023-07-25T09:59:06.432Z,1.60
2023-07-25T10:00:10.934Z,1.60
2023-07-25T10:01:16.956Z,1.48
2023-07-25T10:02:20.625Z,1.65
2023-07-25T10:03:26.332Z,1.50
2023-07-25T10:04:32.678Z,1.33
2023-07-25T10:05:37.890Z,1.70
2023-07-25T10:06:43.578Z,1.42
2023-07-25T10:07:48.560Z,1.45
2023-07-25T10:08:54.748Z,1.60
2023-07-25T10:10:02.403Z,1.70
2023-07-25T10:11:08.179Z,1.58
2023-07-25T10:12:14.704Z,1.38
2023-07-25T10:13:19.066Z,1.48
2023-07-25T10:14:23.697Z,1.52
2023-07-25T10:15:28.932Z,1.45
2023-07-25T10:16:34.161Z,1.20
2023-07-25T10:17:39.893Z,1.90
2023-07-25T10:18:45.355Z,1.60
2023-07-25T10:19:54.053Z,1.30
2023-07-25T10:20:59.453Z,1.35
2023-07-25T10:22:05.635Z,1.42
2023-07-25T10:23:14.171Z,1.60
2023-07-25T10:24:20.823Z,1.30
2023-07-25T10:27:00.398Z,1.40
2023-07-25T10:28:12.784Z,1.52
2023-07-25T10:29:51.053Z,1.20
2023-07-25T10:30:53.926Z,1.70
2023-07-25T10:31:56.155Z,1.30
2023-07-25T10:33:04.056Z,1.60
2023-07-25T10:34:08.884Z,1.63
2023-07-25T10:35:17.350Z,1.50
2023-07-25T10:36:26.741Z,1.00
2023-07-25T10:37:30.796Z,1.23
2023-07-25T10:38:45.594Z,1.30
2023-07-25T10:40:03.695Z,1.20
2023-07-25T10:41:11.453Z,1.80
2023-07-25T10:42:18.930Z,1.50
2023-07-25T10:43:25.325Z,1.48
2023-07-25T10:44:39.732Z,1.48
2023-07-25T10:45:51.777Z,1.30
2023-07-25T10:46:56.419Z,1.25
2023-07-25T10:48:04.574Z,1.33
2023-07-25T10:49:20.809Z,1.10
2023-07-25T10:50:56.683Z,1.48
2023-07-25T10:52:03.405Z,1.67
2023-07-25T10:53:18.065Z,1.20
2023-07-25T10:54:27.093Z,1.50
2023-07-25T10:55:31.461Z,1.10
2023-07-25T10:56:35.835Z,1.10
2023-07-25T10:57:40.669Z,1.30
2023-07-25T10:59:04.922Z,1.30
2023-07-25T11:00:13.978Z,1.25
2023-07-25T11:01:47.351Z,1.40
2023-07-25T11:02:51.645Z,1.40
2023-07-25T11:03:56.403Z,1.38
2023-07-25T11:05:16.314Z,1.25
2023-07-25T11:06:20.755Z,1.38
2023-07-25T11:07:24.897Z,1.45
2023-07-25T11:08:32.232Z,1.30
2023-07-25T11:09:43.321Z,1.42
2023-07-25T11:10:47.830Z,1.50
2023-07-25T11:11:54.426Z,1.75
2023-07-25T11:13:02.328Z,1.40
2023-07-25T11:14:10.184Z,1.50
2023-07-25T11:15:15.218Z,1.27
2023-07-25T11:16:19.761Z,1.50
2023-07-25T11:17:30.826Z,1.60
2023-07-25T11:18:41.115Z,1.48
2023-07-25T11:19:45.627Z,1.73
2023-07-25T11:21:02.290Z,1.52
2023-07-25T11:22:14.322Z,1.60
2023-07-25T11:23:23.888Z,1.42
2023-07-25T11:24:28.356Z,1.55
2023-07-25T11:25:32.918Z,1.20
2023-07-25T11:26:40.974Z,1.50
2023-07-25T11:27:50.264Z,1.30
2023-07-25T11:28:54.903Z,1.38
2023-07-25T11:30:11.892Z,1.45
2023-07-25T11:31:23.613Z,1.50
2023-07-25T11:32:31.995Z,1.08
2023-07-25T11:33:41.122Z,1.20
2023-07-25T11:34:51.817Z,1.02
2023-07-25T11:35:57.483Z,1.10
2023-07-25T11:37:02.247Z,1.20
2023-07-25T11:38:06.787Z,1.30
2023-07-25T11:39:13.065Z,1.08
2023-07-25T11:40:20.330Z,1.38
2023-07-25T11:41:25.069Z,1.42
2023-07-25T11:42:31.299Z,1.20
2023-07-25T11:43:36.840Z,1.33
2023-07-25T11:44:41.946Z,0.93
2023-07-25T11:45:48.969Z,1.13
2023-07-25T11:46:56.921Z,1.13
2023-07-25T11:48:00.542Z,1.17
2023-07-25T11:49:05.896Z,1.00
2023-07-25T11:51:33.046Z,0.98
2023-07-25T11:52:37.645Z,0.90
2023-07-25T11:53:40.387Z,1.88
2023-07-25T11:54:46.204Z,0.93
2023-07-25T11:56:00.353Z,1.00
2023-07-25T11:57:16.847Z,1.00
2023-07-25T11:58:34.925Z,1.10
2023-07-25T11:59:53.595Z,0.80
2023-07-25T12:01:01.356Z,0.98
2023-07-25T12:02:08.324Z,1.08
2023-07-25T12:03:25.091Z,1.25
2023-07-25T12:04:27.464Z,2.70
2023-07-25T12:05:32.627Z,1.60
2023-07-25T12:06:37.096Z,0.98
2023-07-25T12:08:06.636Z,1.15
2023-07-25T12:09:09.938Z,0.98
2023-07-25T12:10:34.314Z,1.10
2023-07-25T12:12:00.490Z,0.98
2023-07-25T12:13:20.141Z,1.13
2023-07-25T12:14:38.071Z,1.10
2023-07-25T12:16:07.905Z,1.00
2023-07-25T12:17:21.081Z,0.90
2023-07-25T12:18:45.453Z,1.02
2023-07-25T12:19:57.523Z,0.70
2023-07-25T12:21:07.108Z,0.80
2023-07-25T12:22:11.986Z,0.77
2023-07-25T12:23:21.460Z,0.75
2023-07-25T12:24:26.935Z,1.00
2023-07-25T12:25:42.338Z,0.70
2023-07-25T12:27:03.062Z,0.77
2023-07-25T12:28:05.721Z,0.80
2023-07-25T12:29:17.855Z,0.80
2023-07-25T12:30:19.971Z,0.90
2023-07-25T12:31:24.959Z,1.00
2023-07-25T12:32:27.584Z,0.90
2023-07-25T12:33:47.003Z,0.90
2023-07-25T12:35:14.590Z,1.00
2023-07-25T12:36:34.742Z,1.30
2023-07-25T12:37:41.861Z,1.13
2023-07-25T12:38:46.036Z,0.85
2023-07-25T12:39:50.301Z,1.00
2023-07-25T12:40:59.025Z,0.90
2023-07-25T12:42:16.557Z,1.00
2023-07-25T12:43:31.726Z,0.85
2023-07-25T12:44:41.823Z,0.93
2023-07-25T12:45:47.707Z,1.00
2023-07-25T12:46:52.116Z,0.90
2023-07-25T12:47:55.959Z,1.08
2023-07-25T12:48:58.188Z,1.02
2023-07-25T12:50:14.117Z,1.20
2023-07-25T12:51:23.997Z,0.95
2023-07-25T12:52:32.776Z,1.00
2023-07-25T12:53:36.215Z,0.93
2023-07-25T12:54:38.510Z,1.00
2023-07-25T12:55:52.969Z,1.00
2023-07-25T12:57:05.942Z,0.77
2023-07-25T12:58:13.803Z,0.90
2023-07-25T12:59:16.836Z,0.88
2023-07-25T13:00:19.417Z,0.75
2023-07-25T13:01:25.890Z,0.70
2023-07-25T13:02:32.924Z,0.82
2023-07-25T13:03:39.882Z,0.75
2023-07-25T13:04:48.934Z,0.90
2023-07-25T13:06:00.688Z,1.05
2023-07-25T13:07:17.371Z,0.93
2023-07-25T13:08:20.720Z,0.90
2023-07-25T13:09:23.037Z,0.75
2023-07-25T13:10:26.045Z,0.88
2023-07-25T13:11:28.952Z,0.88
2023-07-25T13:12:37.927Z,0.80
2023-07-25T13:13:40.288Z,0.90
2023-07-25T13:14:44.206Z,0.88
2023-07-25T13:15:46.773Z,0.73
2023-07-25T13:17:01.943Z,0.77
2023-07-25T13:18:17.029Z,0.95
2023-07-25T13:19:33.892Z,0.80
2023-07-25T13:20:44.064Z,0.70
2023-07-25T13:21:48.412Z,0.75
2023-07-25T13:24:43.759Z,0.82
2023-07-25T13:25:46.435Z,0.80
2023-07-25T13:26:52.547Z,0.70
2023-07-25T13:27:57.263Z,0.82
2023-07-25T13:28:59.344Z,0.90
2023-07-25T13:30:03.972Z,1.20
2023-07-25T13:31:06.413Z,1.20
2023-07-25T13:32:10.530Z,1.48
2023-07-25T13:33:12.979Z,1.02
2023-07-25T13:34:38.472Z,1.00
2023-07-25T13:35:45.428Z,0.95
2023-07-25T13:36:50.133Z,0.85
2023-07-25T13:38:03.637Z,0.80
2023-07-25T13:39:15.413Z,0.80
2023-07-25T13:40:23.805Z,1.08
2023-07-25T13:41:32.173Z,1.30
2023-07-25T13:42:47.617Z,0.88
2023-07-25T13:43:56.584Z,0.90
2023-07-25T13:45:04.904Z,1.00
2023-07-25T13:46:12.638Z,0.98
2023-07-25T13:47:17.630Z,0.88
2023-07-25T13:48:26.244Z,0.93
2023-07-25T13:49:42.132Z,0.88
2023-07-25T13:50:54.684Z,1.08
2023-07-25T13:52:10.824Z,1.00
2023-07-25T13:53:26.983Z,0.93
2023-07-25T13:54:40.926Z,1.10
2023-07-25T13:55:46.404Z,1.10
2023-07-25T13:56:52.081Z,1.20
2023-07-25T13:57:56.897Z,0.90
2023-07-25T13:59:01.911Z,0.73
2023-07-25T14:00:08.112Z,1.00
2023-07-25T14:01:15.794Z,1.10
2023-07-25T14:02:21.066Z,0.98
2023-07-25T14:03:23.110Z,0.88
2023-07-25T14:04:30.232Z,0.95
2023-07-25T14:05:41.418Z,0.95
2023-07-25T14:06:55.846Z,1.00
2023-07-25T14:08:14.196Z,1.30
2023-07-25T14:09:30.117Z,1.20
2023-07-25T14:10:36.089Z,0.95
2023-07-25T14:11:50.124Z,1.08
2023-07-25T14:12:56.976Z,1.20
2023-07-25T14:14:06.249Z,1.00
2023-07-25T14:15:10.665Z,1.00
2023-07-25T14:16:21.727Z,1.30
2023-07-25T14:17:23.794Z,0.98
2023-07-25T14:18:26.158Z,0.80
2023-07-25T14:19:30.267Z,1.00
2023-07-25T14:20:32.655Z,0.90
2023-07-25T14:21:39.295Z,0.82
2023-07-25T14:22:42.263Z,0.90
2023-07-25T14:23:44.433Z,0.70
2023-07-25T14:24:51.913Z,0.90
2023-07-25T14:25:58.215Z,0.80
2023-07-25T14:27:08.406Z,1.00
2023-07-25T14:28:24.782Z,0.80
2023-07-25T14:29:39.662Z,0.90
2023-07-25T14:30:54.319Z,1.17
2023-07-25T14:32:06.322Z,0.85
2023-07-25T14:33:24.337Z,0.90
2023-07-25T14:34:31.452Z,1.00
2023-07-25T14:35:33.527Z,1.00
2023-07-25T14:36:36.064Z,0.93
2023-07-25T14:37:53.343Z,0.90
2023-07-25T14:39:08.709Z,0.88
2023-07-25T14:40:14.402Z,0.90
2023-07-25T14:41:19.751Z,1.00
2023-07-25T14:42:24.123Z,0.93
2023-07-25T14:43:32.724Z,0.80
2023-07-25T14:44:36.834Z,0.77
2023-07-25T14:45:40.688Z,0.93
2023-07-25T14:46:43.450Z,0.80
2023-07-25T14:47:48.440Z,1.10
2023-07-25T14:48:53.497Z,0.98
2023-07-25T14:49:57.554Z,0.95
2023-07-25T14:51:04.262Z,0.80